Aviation Digital Data Service (ADDS)

Output produced by TAFs form (2345 UTC 18 July 2018)
found at http://www.aviationweather.gov/adds/tafs/
 
RJNK 182300Z VRB02KT 9000 FEW280 29/20 Q1011
TAF RJNK 182305Z 1900/2006 30007KT 9999 FEW030 
     BECMG 1903/1905 03005KT 
     BECMG 1912/1915 18005KT 
     BECMG 2000/2003 30010KT